This is the latest recevied weather packets stored in our database for station/object TAPIOLA. If no packets are shown the sender has not sent any weather packets the latest 10 day(s).
| Time | Temp. | Humidity | Pressure | Rain* | Wind** | Luminosity | Snow |
|---|---|---|---|---|---|---|---|
| 1777618016 | 13.89° C | 55% | 1020.8 hPa | 0 mm | - | - | - |
| 1777616817 | 12.78° C | 60% | 1020.8 hPa | 0 mm | - | - | - |
| 1777615616 | 12.22° C | 64% | 1020.8 hPa | 0 mm | - | - | - |
| 1777614416 | 11.67° C | 66% | 1020.8 hPa | 0 mm | - | - | - |
| 1777613216 | 10.56° C | 69% | 1020.9 hPa | 0 mm | - | - | - |
| 1777612016 | 9.44° C | 72% | 1021 hPa | 0 mm | - | - | - |
| 1777610816 | 8.89° C | 75% | 1021 hPa | 0 mm | - | - | - |
| 1777609616 | 8.33° C | 79% | 1021.1 hPa | 0 mm | - | - | - |
| 1777608416 | 7.78° C | 80% | 1021.1 hPa | 0 mm | - | - | - |
| 1777607216 | 7.22° C | 82% | 1021.2 hPa | 0 mm | - | - | - |
| 1777606017 | 6.11° C | 87% | 1021.4 hPa | 0 mm | - | - | - |
| 1777604816 | 5.56° C | 90% | 1021.3 hPa | 0 mm | - | - | - |
| 1777603617 | 5.56° C | 89% | 1021.3 hPa | 0 mm | - | - | - |
| 1777602416 | 5.56° C | 89% | 1021.4 hPa | 0 mm | - | - | - |
| 1777601216 | 6.11° C | 89% | 1021.3 hPa | 0 mm | - | - | - |
| 1777600016 | 5.56° C | 88% | 1021.3 hPa | 0 mm | - | - | - |
| 1777598816 | 6.11° C | 88% | 1021.4 hPa | 0 mm | - | - | - |
| 1777597615 | 6.67° C | 85% | 1021.3 hPa | 0 mm | - | - | - |
| 1777596416 | 8.33° C | 78% | 1021.2 hPa | 0 mm | - | - | - |
| 1777595216 | 8.33° C | 77% | 1021.1 hPa | 0 mm | - | - | - |
| 1777594015 | 8.33° C | 76% | 1021.1 hPa | 0 mm | - | - | - |
| 1777592815 | 8.89° C | 75% | 1021.2 hPa | 0 mm | - | - | - |
| 1777591615 | 9.44° C | 73% | 1021.3 hPa | 0 mm | - | - | - |
| 1777590415 | 9.44° C | 72% | 1021.2 hPa | 0 mm | - | - | - |
| 1777589215 | 10° C | 71% | 1021.1 hPa | 0 mm | - | - | - |
* Rain latest hour (hover to see other rain measurements)
** Current wind speed in m/s (hover to see current wind gust speed)